Time;durP1;ratioP1;P1;durP2;ratioP2;P2;SDS_P1;SDS_P2;PMS_P1;PMS_P2;Temp;Humidity;BMP_temperature;BMP_pressure;BME280_temperature;BME280_humidity;BME280_pressure;Samples;Min_cycle;Max_cycle;Signal;HPM_P1;HPM_P2
2022/03/21 00:01:36;;;;;;;26.73;10.80;;;;;;;3.50;47.36;102535.08;1788355;80;21504;-54
2022/03/21 00:04:05;;;;;;;23.70;9.83;;;;;;;3.49;47.59;102540.11;1788231;80;21088;-55
2022/03/21 00:06:34;;;;;;;24.77;10.38;;;;;;;3.45;47.74;102537.22;1788462;80;21028;-54
2022/03/21 00:09:05;;;;;;;23.75;9.98;;;;;;;3.41;47.89;102532.48;1788477;80;21483;-56
2022/03/21 00:11:34;;;;;;;26.95;10.55;;;;;;;3.39;48.08;102529.48;1788464;80;21020;-55
2022/03/21 00:14:04;;;;;;;28.47;10.58;;;;;;;3.34;48.37;102525.72;1788246;80;21409;-56
2022/03/21 00:16:34;;;;;;;25.15;10.60;;;;;;;3.31;48.49;102525.91;1788109;80;21460;-55
2022/03/21 00:19:04;;;;;;;24.55;10.58;;;;;;;3.27;48.67;102520.30;1787953;80;21076;-56
2022/03/21 00:21:35;;;;;;;25.12;9.65;;;;;;;3.23;48.78;102518.73;1788278;80;21461;-60
2022/03/21 00:24:05;;;;;;;24.55;10.95;;;;;;;3.19;48.91;102517.19;1788295;80;21033;-55
2022/03/21 00:26:36;;;;;;;29.85;11.18;;;;;;;3.15;49.08;102512.45;1788328;80;21044;-55
2022/03/21 00:29:09;;;;;;;30.40;11.50;;;;;;;3.13;49.27;102506.74;1788281;80;21263;-56
2022/03/21 00:31:37;;;;;;;26.17;11.53;;;;;;;3.10;49.51;102505.58;1788244;80;21032;-56
2022/03/21 00:34:08;;;;;;;28.57;12.28;;;;;;;3.09;49.66;102516.03;1788417;80;21045;-55
2022/03/21 00:36:38;;;;;;;31.68;11.90;;;;;;;3.05;49.77;102510.42;1788265;80;21067;-56
2022/03/21 00:39:09;;;;;;;33.23;12.30;;;;;;;3.00;49.95;102501.23;1785517;80;21028;-55
2022/03/21 00:41:38;;;;;;;25.77;11.33;;;;;;;2.98;50.14;102511.30;1788245;80;21068;-56
2022/03/21 00:44:08;;;;;;;32.13;11.68;;;;;;;2.95;50.31;102510.63;1788329;80;21049;-55
2022/03/21 00:46:38;;;;;;;28.47;12.53;;;;;;;2.89;50.53;102508.30;1788348;80;21277;-54
2022/03/21 00:49:11;;;;;;;32.25;12.43;;;;;;;2.85;50.74;102504.91;1788330;80;21516;-55
2022/03/21 00:51:40;;;;;;;31.77;12.10;;;;;;;2.81;50.89;102497.47;1788295;80;20988;-56
2022/03/21 00:54:10;;;;;;;33.05;12.63;;;;;;;2.77;51.14;102506.75;1788561;80;21494;-55
2022/03/21 00:56:39;;;;;;;31.90;12.53;;;;;;;2.74;51.38;102500.17;1788320;80;21020;-55
2022/03/21 00:59:08;;;;;;;30.65;13.48;;;;;;;2.72;51.52;102493.98;1788377;80;21537;-55
2022/03/21 01:01:37;;;;;;;26.80;12.70;;;;;;;2.69;51.64;102496.02;1788105;80;21060;-57
2022/03/21 01:04:07;;;;;;;28.35;12.20;;;;;;;2.67;51.76;102497.45;1788018;80;21037;-54
2022/03/21 01:06:38;;;;;;;30.35;13.80;;;;;;;2.67;51.82;102500.65;1788241;80;21017;-55
2022/03/21 01:09:10;;;;;;;32.23;12.95;;;;;;;2.65;51.96;102497.17;1788525;80;21041;-55
2022/03/21 01:11:39;;;;;;;32.03;13.03;;;;;;;2.65;52.02;102494.45;1788139;80;21089;-55
2022/03/21 01:14:09;;;;;;;31.75;13.65;;;;;;;2.62;52.08;102491.94;1788290;80;21498;-56
2022/03/21 01:16:38;;;;;;;31.93;13.85;;;;;;;2.58;52.18;102491.23;1788308;80;21005;-55
2022/03/21 01:19:07;;;;;;;31.87;12.63;;;;;;;2.54;52.30;102488.33;1788275;80;21065;-56
2022/03/21 01:21:36;;;;;;;31.97;12.98;;;;;;;2.50;52.39;102497.11;1788259;80;21050;-56
2022/03/21 01:24:06;;;;;;;33.33;13.60;;;;;;;2.46;52.59;102487.92;1788340;80;21024;-55
2022/03/21 01:26:36;;;;;;;31.50;13.10;;;;;;;2.43;52.85;102494.40;1788260;80;21029;-55
2022/03/21 01:29:05;;;;;;;33.38;13.68;;;;;;;2.41;52.97;102492.75;1788479;80;20997;-54
2022/03/21 01:31:33;;;;;;;33.67;13.53;;;;;;;2.38;53.13;102495.16;1776240;80;21575;-55
2022/03/21 01:34:03;;;;;;;32.83;14.18;;;;;;;2.36;53.33;102492.16;1774721;80;21053;-55
2022/03/21 01:36:31;;;;;;;29.42;13.10;;;;;;;2.35;53.42;102493.12;1774808;80;21017;-54
2022/03/21 01:39:00;;;;;;;35.33;14.63;;;;;;;2.33;53.54;102485.59;1774640;81;21033;-55
2022/03/21 01:41:30;;;;;;;32.40;14.33;;;;;;;2.33;53.65;102486.94;1774779;81;21037;-54
2022/03/21 01:44:05;;;;;;;41.02;15.00;;;;;;;2.31;53.70;102484.33;1774848;80;21092;-55
2022/03/21 01:46:35;;;;;;;38.00;15.25;;;;;;;2.31;53.74;102486.16;1775022;81;21481;-55
2022/03/21 01:49:07;;;;;;;42.27;16.12;;;;;;;2.29;53.78;102482.20;1774554;81;21033;-55
2022/03/21 01:51:37;;;;;;;40.63;15.83;;;;;;;2.29;53.91;102498.42;1774517;81;20993;-55
2022/03/21 01:56:54;;;;;;;43.35;17.05;;;;;;;2.27;54.04;102492.72;1774664;81;21049;-54
2022/03/21 01:59:24;;;;;;;47.55;19.35;;;;;;;2.23;54.05;102486.63;1774841;80;21085;-54
2022/03/21 02:01:54;;;;;;;49.83;18.70;;;;;;;2.21;54.07;102488.08;1774852;81;21032;-54
2022/03/21 02:04:24;;;;;;;64.50;21.73;;;;;;;2.19;54.06;102491.35;1774785;81;21017;-53
2022/03/21 02:06:54;;;;;;;53.45;19.82;;;;;;;2.16;54.09;102490.66;1774489;80;20981;-53
2022/03/21 02:09:27;;;;;;;50.33;18.85;;;;;;;2.12;54.15;102493.16;1774563;81;21142;-55
2022/03/21 02:11:57;;;;;;;60.43;20.37;;;;;;;2.07;54.25;102497.98;1774822;80;21033;-55
2022/03/21 02:14:27;;;;;;;57.50;21.52;;;;;;;2.05;54.39;102493.14;1774716;80;21014;-55
2022/03/21 02:16:56;;;;;;;56.40;21.12;;;;;;;2.02;54.47;102499.60;1774788;80;21009;-54
2022/03/21 02:19:29;;;;;;;69.32;25.55;;;;;;;2.03;54.49;102491.02;1774493;80;21061;-55
2022/03/21 02:22:37;;;;;;;70.60;24.27;;;;;;;1.99;54.51;102502.97;1774460;80;21071;-55
2022/03/21 02:25:23;;;;;;;57.90;21.00;;;;;;;1.97;54.50;102497.66;1774728;81;21046;-54
2022/03/21 02:27:54;;;;;;;75.60;26.82;;;;;;;1.95;54.58;102498.22;1774391;80;21056;-55
2022/03/21 02:30:23;;;;;;;72.78;25.97;;;;;;;1.93;54.57;102502.82;1777712;80;21456;-55
2022/03/21 02:32:52;;;;;;;81.47;29.63;;;;;;;1.91;54.65;102507.44;1788266;80;21020;-57
2022/03/21 02:35:21;;;;;;;81.40;28.32;;;;;;;1.89;54.70;102499.42;1788391;80;21448;-54
2022/03/21 02:37:51;;;;;;;81.53;30.48;;;;;;;1.87;54.74;102500.48;1788264;80;21076;-54
2022/03/21 02:40:23;;;;;;;97.90;32.40;;;;;;;1.85;54.86;102500.56;1788300;80;21436;-54
2022/03/21 02:42:52;;;;;;;93.85;32.73;;;;;;;1.84;54.87;102492.06;1788413;80;21045;-55
2022/03/21 02:45:21;;;;;;;104.30;32.73;;;;;;;1.85;54.87;102494.29;1788496;80;21052;-55
2022/03/21 02:47:52;;;;;;;100.12;34.13;;;;;;;1.82;54.90;102489.94;1788260;80;21028;-56
2022/03/21 02:50:44;;;;;;;98.05;34.33;;;;;;;1.82;54.92;102495.34;1788374;80;21052;-55
2022/03/21 02:53:14;;;;;;;111.28;36.23;;;;;;;1.80;55.04;102497.74;1781103;80;21064;-54
2022/03/21 02:55:43;;;;;;;107.37;37.15;;;;;;;1.78;55.05;102498.31;1788445;80;21004;-54
2022/03/21 02:58:12;;;;;;;119.35;39.50;;;;;;;1.74;55.09;102504.37;1788560;80;21000;-55
2022/03/21 03:00:41;;;;;;;122.55;41.42;;;;;;;1.71;55.19;102493.75;1788557;80;21052;-54
2022/03/21 03:03:10;;;;;;;134.18;44.03;;;;;;;1.68;55.29;102493.05;1788496;80;21485;-56
2022/03/21 03:05:40;;;;;;;148.15;46.02;;;;;;;1.67;55.40;102495.36;1788565;80;21029;-55
2022/03/21 03:08:09;;;;;;;142.40;46.77;;;;;;;1.65;55.52;102490.53;1788711;80;20965;-53
2022/03/21 03:10:38;;;;;;;147.87;46.92;;;;;;;1.63;55.60;102491.97;1788658;80;21413;-55
2022/03/21 03:13:09;;;;;;;153.00;48.85;;;;;;;1.61;55.69;102494.37;1788579;80;21386;-55
2022/03/21 03:19:36;;;;;;;163.47;50.17;;;;;;;1.63;55.93;102486.56;1829717;77;22125;-57
2022/03/21 03:22:05;;;;;;;183.25;54.98;;;;;;;1.55;55.97;102484.78;1723994;83;21113;-55
2022/03/21 03:24:36;;;;;;;176.93;57.50;;;;;;;1.50;56.04;102486.41;1740076;82;21551;-54
2022/03/21 03:27:05;;;;;;;173.93;54.60;;;;;;;1.49;56.12;102487.36;1724260;83;21186;-55
2022/03/21 03:29:34;;;;;;;175.97;54.85;;;;;;;1.48;56.14;102486.97;1739718;82;21147;-58
2022/03/21 03:32:05;;;;;;;166.37;52.40;;;;;;;1.49;56.22;102490.55;1723942;83;21561;-54
2022/03/21 03:34:33;;;;;;;175.75;55.30;;;;;;;1.47;56.24;102481.17;1740096;82;21127;-55
2022/03/21 03:37:04;;;;;;;206.47;59.30;;;;;;;1.45;56.29;102486.27;1724165;83;21146;-55
2022/03/21 03:39:35;;;;;;;197.02;59.67;;;;;;;1.43;56.36;102491.77;1739844;82;21135;-57
2022/03/21 03:42:06;;;;;;;203.50;63.70;;;;;;;1.42;56.39;102494.08;1724023;83;21546;-55
2022/03/21 03:44:35;;;;;;;224.88;64.27;;;;;;;1.42;56.45;102490.50;1740149;82;21095;-55
2022/03/21 03:47:04;;;;;;;230.92;66.12;;;;;;;1.40;56.47;102490.59;1724014;83;21122;-55
2022/03/21 03:49:35;;;;;;;236.03;68.87;;;;;;;1.39;56.51;102493.38;1740231;82;21547;-56
2022/03/21 03:52:05;;;;;;;227.95;68.65;;;;;;;1.39;56.53;102488.84;1724025;83;21578;-53
2022/03/21 03:54:34;;;;;;;231.43;68.85;;;;;;;1.39;56.57;102491.55;1740079;82;21127;-53
2022/03/21 03:57:04;;;;;;;248.70;72.55;;;;;;;1.40;56.58;102481.14;1724169;83;21118;-55
2022/03/21 03:59:32;;;;;;;253.30;72.08;;;;;;;1.41;56.54;102470.73;1739837;82;21115;-54
2022/03/21 04:02:03;;;;;;;231.93;71.17;;;;;;;1.43;56.52;102470.16;1724102;83;21134;-54
2022/03/21 04:04:32;;;;;;;208.13;68.78;;;;;;;1.45;56.46;102477.69;1739979;82;21583;-55
2022/03/21 04:07:04;;;;;;;215.05;62.43;;;;;;;1.46;56.43;102475.38;1724262;83;21086;-55
2022/03/21 04:09:33;;;;;;;205.05;65.62;;;;;;;1.48;56.46;102476.16;1740297;82;21144;-55
2022/03/21 04:12:03;;;;;;;207.90;62.38;;;;;;;1.51;56.33;102474.64;1724359;83;21554;-56
2022/03/21 04:14:33;;;;;;;187.03;59.33;;;;;;;1.51;56.30;102476.47;1740032;82;21159;-55
2022/03/21 04:17:04;;;;;;;193.10;59.18;;;;;;;1.48;56.35;102469.41;1724132;83;21604;-55
2022/03/21 04:19:32;;;;;;;173.25;55.03;;;;;;;1.50;56.43;102473.38;1726842;82;21132;-54
2022/03/21 04:22:06;;;;;;;177.22;52.70;;;;;;;1.52;56.54;102476.38;1709038;84;21500;-55
2022/03/21 04:24:37;;;;;;;168.25;51.23;;;;;;;1.52;56.73;102471.45;1775051;79;21567;-55
2022/03/21 04:27:05;;;;;;;164.90;53.02;;;;;;;1.53;56.85;102475.42;1775119;81;21103;-55
2022/03/21 04:29:34;;;;;;;167.65;53.70;;;;;;;1.56;56.82;102473.89;1775081;79;21123;-54
2022/03/21 04:32:04;;;;;;;159.67;49.48;;;;;;;1.59;56.81;102468.79;1774813;81;21151;-55
2022/03/21 04:34:33;;;;;;;153.27;49.20;;;;;;;1.61;56.78;102468.70;1774773;81;21107;-55
2022/03/21 04:37:03;;;;;;;157.18;49.05;;;;;;;1.62;56.74;102476.72;1774820;81;21578;-54
2022/03/21 04:39:31;;;;;;;149.02;48.78;;;;;;;1.63;56.73;102469.48;1774691;81;21112;-54
2022/03/21 04:42:00;;;;;;;136.50;44.63;;;;;;;1.65;56.70;102468.91;1774589;79;21108;-55
2022/03/21 04:44:31;;;;;;;127.55;43.68;;;;;;;1.68;56.70;102474.14;1763822;81;21617;-54
2022/03/21 04:46:59;;;;;;;129.97;42.50;;;;;;;1.69;56.69;102467.29;1774536;81;21116;-54
2022/03/21 04:49:29;;;;;;;133.32;40.88;;;;;;;1.70;56.69;102472.22;1774772;81;21166;-55
2022/03/21 04:51:58;;;;;;;123.42;41.40;;;;;;;1.72;56.72;102471.16;1774709;79;21579;-54
2022/03/21 04:54:28;;;;;;;113.40;39.95;;;;;;;1.74;56.77;102473.30;1774749;81;21606;-55
2022/03/21 04:56:57;;;;;;;125.50;38.83;;;;;;;1.77;56.75;102477.66;1774586;81;21171;-53
2022/03/21 04:59:25;;;;;;;122.80;39.08;;;;;;;1.81;56.70;102479.21;1774706;81;21581;-54
2022/03/21 05:01:54;;;;;;;113.17;37.88;;;;;;;1.84;56.65;102477.20;1774569;81;21571;-54
2022/03/21 05:04:23;;;;;;;114.62;37.33;;;;;;;1.87;56.64;102473.45;1774568;81;21143;-56
2022/03/21 05:06:53;;;;;;;112.00;37.90;;;;;;;1.90;56.64;102480.02;1774740;81;21601;-55
2022/03/21 05:09:22;;;;;;;105.30;37.15;;;;;;;1.93;56.63;102470.37;1774611;81;21143;-55
2022/03/21 05:11:53;;;;;;;101.00;35.00;;;;;;;1.96;56.66;102465.30;1701724;84;21230;-55
2022/03/21 05:14:22;;;;;;;111.77;36.65;;;;;;;2.00;56.71;102466.38;1628097;88;21186;-54
2022/03/21 05:16:51;;;;;;;91.63;34.35;;;;;;;2.03;56.66;102474.78;1702175;84;21204;-54
2022/03/21 05:19:21;;;;;;;98.85;32.75;;;;;;;2.05;56.71;102476.44;1701727;84;21178;-55
2022/03/21 05:21:51;;;;;;;90.22;30.95;;;;;;;2.08;56.80;102470.84;1702028;84;21127;-54
2022/03/21 05:32:28;;;;;;;92.00;29.48;;;;;;;2.25;57.00;102473.02;1692970;84;21198;-55
2022/03/21 05:37:44;;;;;;;95.47;32.23;;;;;;;2.35;57.10;102483.66;1774532;79;21147;-56
2022/03/21 05:40:34;;;;;;;88.27;30.48;;;;;;;2.39;57.16;102483.86;1774652;81;21583;-55
2022/03/21 05:43:03;;;;;;;89.32;29.48;;;;;;;2.44;57.17;102478.55;1774767;81;21104;-54
2022/03/21 05:45:34;;;;;;;87.80;28.15;;;;;;;2.50;57.25;102471.89;1774579;79;21155;-55
2022/03/21 05:50:56;;;;;;;87.33;27.05;;;;;;;2.61;57.43;102474.83;1774706;81;21108;-55
2022/03/21 05:53:25;;;;;;;90.55;27.98;;;;;;;2.69;57.57;102479.29;1774850;81;21115;-54
2022/03/21 05:55:55;;;;;;;81.65;27.48;;;;;;;2.77;57.51;102483.73;1774918;81;21513;-54
2022/03/21 05:58:24;;;;;;;87.53;28.25;;;;;;;2.82;57.49;102487.02;1774722;81;21166;-55
2022/03/21 06:00:54;;;;;;;77.53;26.50;;;;;;;2.90;57.42;102482.96;1774818;81;21088;-54
2022/03/21 06:03:26;;;;;;;82.33;26.30;;;;;;;2.95;57.35;102485.77;1774549;81;21103;-56
2022/03/21 06:05:55;;;;;;;87.42;27.95;;;;;;;3.01;57.23;102485.38;1774538;81;21174;-57
2022/03/21 06:08:24;;;;;;;88.12;28.00;;;;;;;3.06;57.09;102483.73;1774776;81;21156;-54
2022/03/21 06:11:03;;;;;;;86.97;27.27;;;;;;;3.10;56.95;102487.98;1774581;80;21143;-56
2022/03/21 06:13:25;;;;;;;73.35;25.92;;;;;;;3.14;56.82;102493.09;1774504;80;21606;-54
2022/03/21 06:15:56;;;;;;;81.57;26.05;;;;;;;3.18;56.86;102485.64;1774477;81;21111;-55
2022/03/21 06:18:26;;;;;;;81.08;26.33;;;;;;;3.21;56.70;102493.58;1776039;80;21155;-54
2022/03/21 06:20:55;;;;;;;78.37;26.60;;;;;;;3.25;56.57;102499.22;1788445;80;21534;-55
2022/03/21 06:23:24;;;;;;;84.37;27.55;;;;;;;3.28;56.56;102494.95;1788262;80;21154;-56
2022/03/21 06:25:54;;;;;;;78.25;27.02;;;;;;;3.31;56.43;102501.52;1788214;80;21181;-55
2022/03/21 06:28:23;;;;;;;86.30;27.25;;;;;;;3.36;56.31;102496.68;1788245;80;21119;-56
2022/03/21 06:30:54;;;;;;;71.45;25.08;;;;;;;3.41;56.27;102497.73;1788365;80;21143;-56
2022/03/21 06:33:26;;;;;;;83.97;26.57;;;;;;;3.45;56.32;102501.50;1788547;80;21111;-55
2022/03/21 06:35:56;;;;;;;80.65;25.92;;;;;;;3.49;56.20;102501.69;1788031;80;21170;-56
2022/03/21 06:38:27;;;;;;;85.60;25.88;;;;;;;3.52;56.09;102507.39;1788292;80;21124;-55
2022/03/21 06:40:55;;;;;;;77.03;26.15;;;;;;;3.56;56.12;102515.70;1788406;80;21139;-55
2022/03/21 06:43:26;;;;;;;71.60;23.15;;;;;;;3.60;56.09;102513.66;1788536;80;21111;-56
2022/03/21 06:45:56;;;;;;;62.13;21.10;;;;;;;3.64;56.03;102512.48;1788182;80;21198;-54
2022/03/21 06:48:27;;;;;;;55.45;20.52;;;;;;;3.68;55.98;102509.47;1788261;80;21087;-55
2022/03/21 06:50:57;;;;;;;58.85;20.10;;;;;;;3.72;55.99;102514.20;1788584;79;21083;-57
2022/03/21 06:53:26;;;;;;;60.65;20.20;;;;;;;3.77;55.91;102512.05;1788276;80;21162;-55
2022/03/21 06:55:56;;;;;;;54.10;20.27;;;;;;;3.82;55.84;102511.27;1788256;80;21239;-55
2022/03/21 06:58:24;;;;;;;47.10;16.45;;;;;;;3.85;55.85;102506.99;1788553;80;21115;-56
2022/03/21 07:00:53;;;;;;;35.25;13.28;;;;;;;3.88;55.81;102512.20;1788251;80;21562;-54
2022/03/21 07:03:24;;;;;;;23.67;9.83;;;;;;;3.93;55.84;102517.36;1788257;80;21174;-55
2022/03/21 07:05:54;;;;;;;21.87;7.87;;;;;;;3.94;55.89;102515.90;1788301;80;21135;-54
2022/03/21 07:08:26;;;;;;;18.17;6.83;;;;;;;3.97;55.76;102517.05;1787966;80;21091;-56
2022/03/21 07:10:56;;;;;;;15.75;6.80;;;;;;;3.99;55.80;102512.88;1788275;79;21544;-56
2022/03/21 07:13:27;;;;;;;13.98;6.20;;;;;;;4.02;55.78;102514.03;1788353;80;21551;-55
2022/03/21 07:15:57;;;;;;;17.30;5.97;;;;;;;4.04;55.67;102513.44;1788192;80;21107;-56
2022/03/21 07:18:26;;;;;;;12.45;6.15;;;;;;;4.07;55.72;102524.08;1788424;80;21210;-54
2022/03/21 07:20:56;;;;;;;16.27;6.20;;;;;;;4.09;55.56;102511.28;1782788;80;21143;-55
2022/03/21 07:23:25;;;;;;;17.80;6.45;;;;;;;4.11;55.59;102516.98;1782953;80;21643;-55
2022/03/21 07:25:55;;;;;;;13.78;5.60;;;;;;;4.15;55.59;102514.94;1782672;79;21158;-57
2022/03/21 07:28:27;;;;;;;16.15;6.40;;;;;;;4.21;55.50;102513.64;1783064;80;21123;-55
2022/03/21 07:30:59;;;;;;;11.80;5.40;;;;;;;4.24;55.40;102512.08;1780218;80;21578;-56
2022/03/21 07:33:28;;;;;;;13.10;5.33;;;;;;;4.27;55.31;102501.02;1782954;80;21123;-55
2022/03/21 07:35:57;;;;;;;17.07;6.15;;;;;;;4.34;55.27;102496.91;1782931;80;21565;-55
2022/03/21 07:38:28;;;;;;;11.63;5.12;;;;;;;4.41;55.07;102490.07;1782677;79;21075;-55
2022/03/21 07:40:59;;;;;;;12.63;5.47;;;;;;;4.46;54.93;102498.77;1782941;80;21531;-56
2022/03/21 07:43:29;;;;;;;8.95;4.90;;;;;;;4.52;54.73;102501.05;1782705;79;21593;-55
2022/03/21 07:48:46;;;;;;;10.93;5.08;;;;;;;4.69;54.24;102508.91;1782838;80;21083;-54
2022/03/21 07:51:15;;;;;;;13.53;5.37;;;;;;;4.77;54.09;102512.45;1783043;79;21637;-55
2022/03/21 07:53:44;;;;;;;12.28;5.10;;;;;;;4.81;53.98;102508.53;1782782;80;21139;-56
2022/03/21 07:56:14;;;;;;;10.98;5.05;;;;;;;4.86;53.70;102504.13;1782719;80;21092;-55
2022/03/21 07:58:43;;;;;;;11.28;5.53;;;;;;;4.98;53.58;102512.77;1782974;80;21162;-55
2022/03/21 08:01:12;;;;;;;10.85;5.28;;;;;;;5.25;53.47;102511.30;1782842;80;21140;-55
2022/03/21 08:03:41;;;;;;;12.07;5.33;;;;;;;5.76;52.85;102513.38;1782624;79;21594;-56
2022/03/21 08:06:10;;;;;;;16.37;5.87;;;;;;;6.31;51.89;102507.39;1783030;79;21159;-55
2022/03/21 08:08:41;;;;;;;12.18;5.45;;;;;;;6.84;50.84;102498.25;1783001;80;21552;-56
2022/03/21 08:11:11;;;;;;;17.12;5.65;;;;;;;7.44;49.26;102489.35;1782865;80;21599;-56
2022/03/21 08:13:42;;;;;;;10.05;6.08;;;;;;;7.98;48.30;102485.77;1782834;79;21590;-56
2022/03/21 08:16:11;;;;;;;11.93;5.85;;;;;;;8.51;47.14;102484.83;1782762;80;21084;-55
2022/03/21 08:18:40;;;;;;;13.55;5.92;;;;;;;9.03;45.76;102487.56;1782588;80;21151;-57
2022/03/21 08:21:09;;;;;;;11.50;6.03;;;;;;;9.42;44.06;102488.12;1774538;80;21155;-55
2022/03/21 08:23:41;;;;;;;10.85;5.90;;;;;;;9.84;43.51;102488.82;1774574;79;21132;-56
2022/03/21 08:26:10;;;;;;;11.48;6.35;;;;;;;10.23;42.26;102488.88;1774733;81;21158;-56
2022/03/21 08:28:43;;;;;;;13.95;6.30;;;;;;;10.52;41.59;102475.69;1774576;81;21123;-54
2022/03/21 08:31:13;;;;;;;12.28;5.85;;;;;;;10.80;40.51;102470.64;1774412;80;21107;-55
2022/03/21 08:33:43;;;;;;;10.25;5.20;;;;;;;11.00;39.72;102473.68;1774503;81;21091;-56
2022/03/21 08:36:13;;;;;;;12.90;5.87;;;;;;;11.25;39.53;102465.81;1774457;81;21163;-54
2022/03/21 08:38:42;;;;;;;16.48;6.40;;;;;;;11.49;39.07;102466.12;1774476;81;21162;-56
2022/03/21 08:41:11;;;;;;;15.05;6.35;;;;;;;11.71;38.45;102462.11;1774857;81;21630;-56
2022/03/21 08:43:41;;;;;;;15.13;5.72;;;;;;;11.85;38.37;102460.75;1774570;80;21107;-55
2022/03/21 08:46:10;;;;;;;11.83;5.90;;;;;;;11.99;38.02;102465.70;1763486;81;21583;-56
2022/03/21 08:51:29;;;;;;;10.10;5.03;;;;;;;12.07;37.21;102461.66;1772928;81;21135;-56
2022/03/21 08:53:58;;;;;;;12.65;5.55;;;;;;;12.08;37.01;102458.40;1774525;81;21151;-56
2022/03/21 08:56:28;;;;;;;8.80;5.00;;;;;;;11.98;36.56;102463.46;1774588;81;21123;-55
2022/03/21 08:58:58;;;;;;;9.68;4.80;;;;;;;11.85;36.91;102456.12;1774738;81;21143;-55
2022/03/21 09:01:28;;;;;;;12.00;4.83;;;;;;;11.84;37.09;102464.52;1774779;80;21112;-56
2022/03/21 09:03:57;;;;;;;7.40;4.47;;;;;;;11.86;36.78;102463.84;1774514;79;21143;-56
2022/03/21 09:06:26;;;;;;;11.40;4.95;;;;;;;11.67;36.70;102458.78;1774508;81;21135;-55
2022/03/21 09:08:56;;;;;;;16.67;4.47;;;;;;;11.52;37.11;102463.06;1774484;81;21116;-56
2022/03/21 09:11:26;;;;;;;6.22;4.05;;;;;;;11.43;36.90;102461.23;1774581;81;21143;-55
2022/03/21 09:13:57;;;;;;;11.12;4.20;;;;;;;11.23;37.01;102452.75;1774549;81;21099;-55
2022/03/21 09:16:27;;;;;;;8.53;3.77;;;;;;;11.04;37.31;102457.78;1774455;81;21135;-55
2022/03/21 09:18:57;;;;;;;8.00;3.72;;;;;;;10.85;37.28;102462.84;1774551;81;21191;-55
2022/03/21 09:21:27;;;;;;;9.43;3.87;;;;;;;10.65;37.49;102446.08;1782419;80;21080;-55
2022/03/21 09:23:57;;;;;;;6.47;3.30;;;;;;;10.50;37.83;102449.80;1788218;80;21115;-55
2022/03/21 09:26:25;;;;;;;6.78;3.00;;;;;;;10.41;37.84;102444.69;1788278;80;21371;-57
2022/03/21 09:29:02;;;;;;;7.95;3.33;;;;;;;10.33;37.97;102442.29;1788321;80;21083;-55
2022/03/21 09:31:32;;;;;;;8.33;3.05;;;;;;;10.28;38.04;102446.84;1788410;80;21095;-56
2022/03/21 09:34:03;;;;;;;8.83;3.10;;;;;;;10.21;37.99;102438.84;1787512;80;21134;-56
2022/03/21 09:36:32;;;;;;;7.33;2.92;;;;;;;10.15;38.22;102444.87;1788336;79;21142;-56
2022/03/21 09:39:01;;;;;;;6.67;2.42;;;;;;;10.15;37.90;102441.62;1788448;80;21112;-57
2022/03/21 09:41:30;;;;;;;3.60;1.92;;;;;;;10.19;37.50;102431.23;1771097;80;21107;-55
2022/03/21 09:44:07;;;;;;;4.50;2.10;;;;;;;10.21;37.31;102436.61;1788268;80;21138;-57
2022/03/21 09:46:44;;;;;;;;;;;;;;;10.18;37.22;102444.58;1790949;80;21139;-57
2022/03/21 09:49:15;;;;;;;8.63;4.33;;;;;;;10.12;37.01;102440.55;1788727;80;20558;-56
2022/03/21 09:51:46;;;;;;;3.02;1.82;;;;;;;10.11;37.23;102437.95;1788312;79;21115;-55
2022/03/21 09:54:16;;;;;;;12.80;2.15;;;;;;;10.10;36.82;102432.11;1788678;79;21523;-56
2022/03/21 09:56:46;;;;;;;3.98;1.77;;;;;;;10.12;36.64;102434.20;1788392;80;21158;-55
2022/03/21 09:59:16;;;;;;;8.15;1.57;;;;;;;10.12;36.70;102427.35;1788551;80;21151;-56
2022/03/21 10:01:46;;;;;;;3.92;1.35;;;;;;;10.10;36.62;102424.75;1788256;80;21609;-54
2022/03/21 10:04:18;;;;;;;2.72;1.57;;;;;;;10.05;36.44;102428.44;1788312;80;21162;-55
2022/03/21 10:06:49;;;;;;;4.75;1.42;;;;;;;10.02;36.67;102435.57;1788422;80;21115;-54
2022/03/21 10:09:19;;;;;;;8.80;1.42;;;;;;;10.01;36.80;102429.73;1788402;80;21149;-56
2022/03/21 10:11:55;;;;;;;4.85;1.25;;;;;;;10.01;36.54;102425.63;1788265;80;21107;-56
2022/03/21 10:14:36;;;;;;;4.10;1.30;;;;;;;9.98;36.84;102427.28;1788494;80;21135;-56
2022/03/21 10:17:10;;;;;;;2.70;1.25;;;;;;;9.97;36.72;102427.43;1788479;80;21181;-55
2022/03/21 10:19:46;;;;;;;5.40;1.27;;;;;;;9.97;36.84;102426.92;1788166;80;21099;-56
2022/03/21 10:22:19;;;;;;;3.35;1.62;;;;;;;9.97;36.94;102418.70;1788146;80;21087;-58
2022/03/21 10:24:51;;;;;;;5.05;1.40;;;;;;;9.99;37.07;102414.45;1788458;80;21083;-57
2022/03/21 10:27:40;;;;;;;4.05;1.57;;;;;;;10.00;37.20;102413.45;1788195;79;21154;-58
2022/03/21 10:30:23;;;;;;;4.17;1.55;;;;;;;10.01;37.15;102420.15;1788126;80;21103;-56
2022/03/21 10:32:55;;;;;;;5.47;1.00;;;;;;;10.04;36.98;102406.16;1788376;80;21135;-57
2022/03/21 10:35:29;;;;;;;8.65;1.40;;;;;;;10.09;36.71;102412.58;1788197;80;21166;-56
2022/03/21 10:38:03;;;;;;;4.25;1.20;;;;;;;10.07;36.61;102412.72;1788272;80;21199;-57
2022/03/21 10:40:44;;;;;;;4.22;1.20;;;;;;;10.07;36.74;102408.61;1788348;80;21151;-56
2022/03/21 10:43:15;;;;;;;3.25;1.27;;;;;;;10.08;36.93;102406.73;1788262;80;21154;-56
2022/03/21 10:45:50;;;;;;;22.13;2.60;;;;;;;10.11;36.80;102407.81;1788547;80;21159;-57
2022/03/21 10:48:32;;;;;;;6.00;1.30;;;;;;;10.13;36.82;102405.80;1788332;80;21146;-55
2022/03/21 10:51:02;;;;;;;8.38;1.70;;;;;;;10.08;36.88;102394.41;1788304;80;21115;-55
2022/03/21 10:53:40;;;;;;;6.70;1.62;;;;;;;10.06;37.09;102390.95;1788287;80;21087;-56
2022/03/21 10:56:11;;;;;;;3.92;1.55;;;;;;;10.08;37.20;102390.30;1788164;79;21574;-56
2022/03/21 10:58:43;;;;;;;4.30;1.47;;;;;;;10.13;37.18;102379.77;1788248;80;21143;-56
2022/03/21 11:01:16;;;;;;;6.85;1.80;;;;;;;10.17;37.20;102377.09;1788297;79;21115;-55
2022/03/21 11:03:51;;;;;;;4.97;1.37;;;;;;;10.19;37.26;102379.19;1788151;80;21134;-55
2022/03/21 11:06:20;;;;;;;3.62;1.55;;;;;;;10.19;37.41;102381.92;1770931;80;21178;-55
2022/03/21 11:08:52;;;;;;;14.00;2.02;;;;;;;10.19;37.36;102381.92;1788250;80;21640;-54
2022/03/21 11:11:25;;;;;;;5.35;1.50;;;;;;;10.15;37.40;102381.36;1788417;80;21095;-56
2022/03/21 11:13:55;;;;;;;4.17;1.57;;;;;;;10.14;37.58;102378.25;1788570;80;21158;-55
2022/03/21 11:16:24;;;;;;;4.90;1.87;;;;;;;10.15;37.67;102376.38;1788119;80;21535;-55
2022/03/21 11:18:59;;;;;;;6.28;2.00;;;;;;;10.17;37.75;102370.25;1788361;80;21522;-56
2022/03/21 11:21:30;;;;;;;2.92;1.45;;;;;;;10.21;37.78;102368.11;1788199;79;21190;-55
2022/03/21 11:24:00;;;;;;;3.33;1.60;;;;;;;10.22;37.88;102370.70;1788520;79;21535;-56
2022/03/21 11:27:10;;;;;;;3.12;1.57;;;;;;;10.24;37.72;102365.94;1788087;80;21193;-56
2022/03/21 11:29:44;;;;;;;4.50;1.67;;;;;;;10.24;37.91;102365.08;1712021;84;21121;-57
2022/03/21 11:32:19;;;;;;;15.72;2.50;;;;;;;10.23;38.12;102358.73;1712100;84;21091;-57
2022/03/21 11:35:03;;;;;;;5.58;1.80;;;;;;;10.27;38.02;102349.20;1758724;80;21067;-57
2022/03/21 11:37:34;;;;;;;4.20;1.90;;;;;;;10.31;38.00;102346.53;1778153;80;21107;-54
2022/03/21 11:40:35;;;;;;;9.38;3.15;;;;;;;10.34;38.06;102352.22;1788229;80;21115;-54
2022/03/21 11:43:22;;;;;;;3.33;1.80;;;;;;;10.38;38.28;102347.66;1788171;80;21087;-56
2022/03/21 11:45:59;;;;;;;4.78;2.08;;;;;;;10.46;38.12;102345.06;1787809;80;21099;-55
2022/03/21 11:48:31;;;;;;;6.30;2.20;;;;;;;10.51;38.07;102343.76;1787869;80;21087;-56
2022/03/21 11:51:20;;;;;;;6.83;2.00;;;;;;;10.53;38.08;102337.62;1788273;80;21139;-56
2022/03/21 11:53:51;;;;;;;7.25;2.08;;;;;;;10.55;38.23;102335.08;1788299;80;21111;-56
2022/03/21 11:56:45;;;;;;;5.25;1.95;;;;;;;10.63;38.23;102335.19;1788327;79;21167;-55
2022/03/21 11:59:39;;;;;;;7.50;2.55;;;;;;;10.69;38.16;102330.47;1788566;80;21139;-57
2022/03/21 12:02:24;;;;;;;5.55;2.52;;;;;;;10.72;38.14;102329.31;1788663;79;21103;-56
2022/03/21 12:04:59;;;;;;;5.65;2.30;;;;;;;10.72;38.08;102324.69;1788330;79;21126;-56